createdAt,value
2022-09-03T00:02:25.989Z,100.00
2022-09-03T00:05:42.497Z,100.00
2022-09-03T00:08:41.006Z,100.00
2022-09-03T00:11:26.402Z,100.00
2022-09-03T00:14:16.718Z,100.00
2022-09-03T00:17:02.687Z,100.00
2022-09-03T00:19:43.008Z,100.00
2022-09-03T00:22:18.653Z,100.00
2022-09-03T00:25:03.311Z,100.00
2022-09-03T00:27:41.933Z,100.00
2022-09-03T00:30:17.707Z,100.00
2022-09-03T00:33:06.133Z,100.00
2022-09-03T00:36:03.800Z,100.00
2022-09-03T00:38:35.712Z,100.00
2022-09-03T00:41:29.147Z,100.00
2022-09-03T00:47:43.635Z,100.00
2022-09-03T00:51:04.917Z,100.00
2022-09-03T00:53:53.737Z,100.00
2022-09-03T00:56:53.563Z,100.00
2022-09-03T00:59:42.347Z,100.00
2022-09-03T01:02:32.163Z,100.00
2022-09-03T01:05:07.226Z,100.00
2022-09-03T01:08:03.468Z,100.00
2022-09-03T01:10:47.945Z,100.00
2022-09-03T01:16:45.518Z,100.00
2022-09-03T01:19:54.295Z,100.00
2022-09-03T01:22:54.989Z,100.00
2022-09-03T01:25:56.585Z,100.00
2022-09-03T01:29:00.405Z,100.00
2022-09-03T01:31:50.572Z,100.00
2022-09-03T01:35:19.277Z,100.00
2022-09-03T01:38:05.030Z,100.00
2022-09-03T01:41:29.378Z,100.00
2022-09-03T01:44:28.858Z,100.00
2022-09-03T01:47:36.397Z,100.00
2022-09-03T01:50:19.641Z,100.00
2022-09-03T01:53:28.559Z,100.00
2022-09-03T01:56:42.052Z,100.00
2022-09-03T01:59:27.431Z,100.00
2022-09-03T02:02:24.038Z,100.00
2022-09-03T02:05:16.779Z,100.00
2022-09-03T02:07:52.561Z,100.00
2022-09-03T02:10:45.406Z,100.00
2022-09-03T02:13:25.817Z,100.00
2022-09-03T02:16:06.505Z,100.00
2022-09-03T02:18:50.610Z,100.00
2022-09-03T02:21:24.768Z,100.00
2022-09-03T02:23:55.329Z,100.00
2022-09-03T02:26:26.687Z,100.00
2022-09-03T02:28:57.787Z,100.00
2022-09-03T02:31:37.070Z,100.00
2022-09-03T02:34:18.833Z,100.00
2022-09-03T02:36:58.124Z,100.00
2022-09-03T02:39:29.343Z,100.00
2022-09-03T02:42:13.992Z,100.00
2022-09-03T02:44:53.983Z,100.00
2022-09-03T02:47:33.546Z,100.00
2022-09-03T02:50:09.713Z,100.00
2022-09-03T02:52:46.407Z,100.00
2022-09-03T02:55:20.612Z,100.00
2022-09-03T02:57:52.595Z,100.00
2022-09-03T03:00:42.102Z,100.00
2022-09-03T03:03:11.372Z,100.00
2022-09-03T03:05:57.756Z,100.00
2022-09-03T03:08:46.790Z,100.00
2022-09-03T03:11:24.300Z,100.00
2022-09-03T03:14:08.178Z,100.00
2022-09-03T03:16:40.282Z,100.00
2022-09-03T03:19:18.340Z,100.00
2022-09-03T03:21:51.928Z,100.00
2022-09-03T03:24:28.805Z,100.00
2022-09-03T03:27:11.914Z,100.00
2022-09-03T03:29:41.841Z,100.00
2022-09-03T03:32:15.327Z,100.00
2022-09-03T03:34:51.239Z,100.00
2022-09-03T03:40:09.025Z,100.00
2022-09-03T03:42:44.628Z,100.00
2022-09-03T03:45:13.647Z,100.00
2022-09-03T03:47:45.462Z,100.00
2022-09-03T03:50:31.225Z,100.00
2022-09-03T03:53:06.363Z,100.00
2022-09-03T03:55:35.467Z,100.00
2022-09-03T03:58:09.770Z,100.00
2022-09-03T04:00:41.407Z,100.00
2022-09-03T04:03:15.603Z,100.00
2022-09-03T04:05:55.206Z,100.00
2022-09-03T04:08:32.561Z,100.00
2022-09-03T04:11:08.135Z,100.00
2022-09-03T04:13:46.233Z,100.00
2022-09-03T04:16:34.038Z,100.00
2022-09-03T04:19:08.908Z,100.00
2022-09-03T04:21:48.952Z,100.00
2022-09-03T04:24:35.310Z,100.00
2022-09-03T04:27:12.666Z,100.00
2022-09-03T04:29:48.038Z,100.00
2022-09-03T04:32:36.120Z,100.00
2022-09-03T04:35:06.814Z,100.00
2022-09-03T04:37:41.247Z,100.00
2022-09-03T04:40:24.759Z,100.00
2022-09-03T04:42:56.007Z,100.00
2022-09-03T04:45:26.801Z,100.00
2022-09-03T04:48:11.675Z,100.00
2022-09-03T04:50:42.116Z,100.00
2022-09-03T04:53:15.217Z,100.00
2022-09-03T04:55:52.071Z,100.00
2022-09-03T04:58:25.765Z,100.00
2022-09-03T05:01:02.326Z,100.00
2022-09-03T05:03:38.992Z,100.00
2022-09-03T05:06:19.847Z,100.00
2022-09-03T05:08:58.648Z,100.00
2022-09-03T05:11:29.972Z,100.00
2022-09-03T05:14:03.802Z,100.00
2022-09-03T05:16:40.737Z,100.00
2022-09-03T05:19:13.377Z,100.00
2022-09-03T05:21:47.493Z,100.00
2022-09-03T05:24:32.773Z,100.00
2022-09-03T05:27:04.281Z,100.00
2022-09-03T05:29:36.497Z,100.00
2022-09-03T05:32:16.824Z,100.00
2022-09-03T05:34:47.776Z,100.00
2022-09-03T05:37:19.953Z,100.00
2022-09-03T05:40:02.942Z,100.00
2022-09-03T05:42:42.636Z,100.00
2022-09-03T05:45:20.873Z,100.00
2022-09-03T05:47:54.536Z,100.00
2022-09-03T05:50:24.957Z,100.00
2022-09-03T05:53:02.703Z,100.00
2022-09-03T05:55:45.570Z,100.00
2022-09-03T05:58:22.374Z,100.00
2022-09-03T06:00:56.360Z,100.00
2022-09-03T06:03:33.644Z,100.00
2022-09-03T06:06:06.720Z,100.00
2022-09-03T06:08:36.267Z,100.00
2022-09-03T06:11:07.904Z,100.00
2022-09-03T06:13:38.034Z,100.00
2022-09-03T06:16:18.438Z,100.00
2022-09-03T06:19:07.176Z,100.00
2022-09-03T06:21:46.857Z,100.00
2022-09-03T06:24:31.849Z,100.00
2022-09-03T06:27:09.033Z,100.00
2022-09-03T06:29:40.151Z,100.00
2022-09-03T06:32:11.542Z,100.00
2022-09-03T06:34:47.273Z,100.00
2022-09-03T06:37:24.874Z,100.00
2022-09-03T06:39:59.766Z,100.00
2022-09-03T06:42:40.046Z,100.00
2022-09-03T06:45:24.211Z,100.00
2022-09-03T06:48:03.204Z,100.00
2022-09-03T06:50:37.405Z,100.00
2022-09-03T06:53:13.216Z,100.00
2022-09-03T06:55:49.323Z,100.00
2022-09-03T06:58:24.271Z,100.00
2022-09-03T07:00:56.520Z,100.00
2022-09-03T07:03:30.901Z,100.00
2022-09-03T07:06:11.133Z,100.00
2022-09-03T07:08:49.487Z,100.00
2022-09-03T07:11:27.101Z,100.00
2022-09-03T07:14:00.616Z,100.00
2022-09-03T07:16:40.897Z,100.00
2022-09-03T07:19:20.010Z,100.00
2022-09-03T07:21:54.725Z,100.00
2022-09-03T07:24:38.789Z,100.00
2022-09-03T07:27:15.237Z,100.00
2022-09-03T07:29:45.174Z,100.00
2022-09-03T07:32:13.410Z,100.00
2022-09-03T07:34:45.814Z,100.00
2022-09-03T07:37:23.103Z,100.00
2022-09-03T07:39:54.201Z,100.00
2022-09-03T07:42:32.583Z,100.00
2022-09-03T07:45:05.852Z,100.00
2022-09-03T07:47:40.474Z,100.00
2022-09-03T07:50:12.649Z,100.00
2022-09-03T07:52:48.703Z,100.00
2022-09-03T07:55:28.448Z,100.00
2022-09-03T07:58:06.485Z,100.00
2022-09-03T08:00:40.626Z,100.00
2022-09-03T08:03:11.196Z,100.00
2022-09-03T08:05:40.707Z,100.00
2022-09-03T08:08:22.472Z,100.00
2022-09-03T08:10:58.942Z,100.00
2022-09-03T08:13:36.212Z,100.00
2022-09-03T08:16:07.114Z,100.00
2022-09-03T08:18:54.476Z,100.00
2022-09-03T08:21:35.868Z,100.00
2022-09-03T08:24:05.756Z,100.00
2022-09-03T08:26:49.076Z,100.00
2022-09-03T08:29:22.647Z,100.00
2022-09-03T08:32:05.223Z,100.00
2022-09-03T08:34:37.528Z,100.00
2022-09-03T08:37:10.706Z,100.00
2022-09-03T08:39:42.929Z,100.00
2022-09-03T08:42:49.729Z,100.00
2022-09-03T08:45:22.925Z,100.00
2022-09-03T08:48:22.692Z,100.00
2022-09-03T08:51:03.465Z,100.00
2022-09-03T08:53:58.815Z,100.00
2022-09-03T08:56:36.641Z,100.00
2022-09-03T08:59:09.442Z,100.00
2022-09-03T09:02:11.455Z,100.00
2022-09-03T09:05:22.466Z,100.00
2022-09-03T09:08:18.387Z,100.00
2022-09-03T09:10:52.602Z,100.00
2022-09-03T09:13:35.223Z,100.00
2022-09-03T09:16:45.542Z,100.00
2022-09-03T09:19:58.507Z,100.00
2022-09-03T09:22:38.703Z,100.00
2022-09-03T09:25:20.473Z,100.00
2022-09-03T09:28:29.612Z,100.00
2022-09-03T09:31:10.713Z,100.00
2022-09-03T09:33:44.005Z,100.00
2022-09-03T09:36:18.374Z,100.00
2022-09-03T09:38:49.212Z,100.00
2022-09-03T09:41:24.189Z,100.00
2022-09-03T09:44:08.176Z,100.00
2022-09-03T09:46:50.254Z,100.00
2022-09-03T09:49:41.234Z,100.00
2022-09-03T09:52:13.097Z,100.00
2022-09-03T09:54:49.315Z,100.00
2022-09-03T09:57:30.813Z,100.00
2022-09-03T10:00:26.575Z,100.00
2022-09-03T10:02:58.654Z,100.00
2022-09-03T10:05:33.828Z,100.00
2022-09-03T10:08:05.584Z,100.00
2022-09-03T10:10:54.241Z,100.00
2022-09-03T10:13:44.945Z,100.00
2022-09-03T10:16:30.827Z,100.00
2022-09-03T10:19:09.514Z,100.00
2022-09-03T10:21:50.513Z,100.00
2022-09-03T10:25:05.960Z,100.00
2022-09-03T10:27:51.170Z,100.00
2022-09-03T10:30:26.028Z,99.55
2022-09-03T10:33:35.634Z,100.00
2022-09-03T10:36:53.277Z,100.00
2022-09-03T10:40:04.206Z,98.11
2022-09-03T10:42:54.544Z,95.34
2022-09-03T10:46:10.157Z,91.22
2022-09-03T10:49:15.594Z,91.64
2022-09-03T10:51:59.242Z,88.48
2022-09-03T10:55:00.599Z,80.73
2022-09-03T10:57:49.705Z,96.22
2022-09-03T11:00:23.719Z,95.79
2022-09-03T11:03:26.358Z,79.77
2022-09-03T11:06:12.699Z,79.26
2022-09-03T11:08:52.324Z,73.48
2022-09-03T11:11:29.080Z,73.54
2022-09-03T11:14:26.119Z,74.30
2022-09-03T11:17:10.197Z,81.69
2022-09-03T11:19:59.373Z,82.41
2022-09-03T11:22:30.663Z,79.86
2022-09-03T11:25:14.986Z,77.61
2022-09-03T11:28:11.951Z,77.84
2022-09-03T11:31:27.513Z,78.51
2022-09-03T11:34:08.913Z,81.88
2022-09-03T11:36:49.556Z,80.33
2022-09-03T11:39:34.625Z,72.52
2022-09-03T11:42:13.863Z,67.00
2022-09-03T11:44:51.103Z,67.79
2022-09-03T11:48:03.450Z,71.72
2022-09-03T11:53:38.706Z,66.97
2022-09-03T11:56:16.019Z,55.96
2022-09-03T11:58:56.529Z,54.74
2022-09-03T12:01:36.033Z,55.97
2022-09-03T12:04:10.251Z,54.25
2022-09-03T12:07:17.563Z,54.53
2022-09-03T12:10:22.544Z,60.24
2022-09-03T12:13:15.401Z,57.89
2022-09-03T12:16:12.834Z,57.46
2022-09-03T12:18:43.838Z,55.40
2022-09-03T12:21:22.541Z,54.00
2022-09-03T12:23:58.255Z,57.54
2022-09-03T12:26:34.732Z,53.84
2022-09-03T12:29:12.210Z,53.84
2022-09-03T12:32:01.824Z,62.42
2022-09-03T12:34:36.261Z,58.20
2022-09-03T12:40:32.157Z,50.84
2022-09-03T12:43:49.939Z,47.84
2022-09-03T12:46:18.463Z,48.89
2022-09-03T12:52:08.620Z,48.08
2022-09-03T12:54:55.722Z,50.30
2022-09-03T12:57:38.518Z,51.48
2022-09-03T13:00:12.943Z,47.07
2022-09-03T13:03:08.636Z,49.90
2022-09-03T13:05:57.989Z,45.24
2022-09-03T13:08:33.274Z,45.92
2022-09-03T13:11:13.017Z,45.31
2022-09-03T13:14:17.879Z,48.52
2022-09-03T13:17:15.173Z,45.37
2022-09-03T13:20:10.858Z,45.65
2022-09-03T13:23:24.582Z,46.50
2022-09-03T13:26:06.242Z,47.77
2022-09-03T13:29:02.907Z,48.92
2022-09-03T13:32:07.842Z,47.68
2022-09-03T13:35:02.887Z,48.74
2022-09-03T13:38:37.779Z,47.61
2022-09-03T13:41:38.755Z,44.17
2022-09-03T13:44:25.475Z,43.18
2022-09-03T13:47:10.698Z,41.49
2022-09-03T13:50:17.056Z,41.95
2022-09-03T13:53:30.241Z,39.03
2022-09-03T13:56:07.976Z,37.59
2022-09-03T13:59:20.012Z,36.12
2022-09-03T14:01:57.532Z,36.75
2022-09-03T14:04:57.619Z,36.02
2022-09-03T14:08:14.128Z,37.46
2022-09-03T14:10:54.526Z,39.94
2022-09-03T14:14:03.510Z,41.52
2022-09-03T14:16:39.797Z,43.86
2022-09-03T14:19:41.725Z,45.84
2022-09-03T14:22:29.667Z,48.92
2022-09-03T14:25:15.946Z,50.53
2022-09-03T14:27:48.273Z,51.59
2022-09-03T14:30:40.333Z,57.19
2022-09-03T14:33:33.225Z,58.25
2022-09-03T14:36:20.532Z,60.35
2022-09-03T14:39:28.365Z,67.43
2022-09-03T14:42:19.899Z,74.86
2022-09-03T14:45:31.186Z,84.23
2022-09-03T14:48:25.170Z,83.84
2022-09-03T14:51:22.165Z,91.58
2022-09-03T14:54:18.734Z,91.82
2022-09-03T14:57:13.116Z,89.30
2022-09-03T15:00:07.497Z,92.26
2022-09-03T15:02:47.242Z,92.71
2022-09-03T15:05:44.407Z,96.27
2022-09-03T15:08:33.197Z,94.89
2022-09-03T15:11:04.651Z,99.50
2022-09-03T15:13:57.041Z,97.43
2022-09-03T15:17:15.626Z,97.03
2022-09-03T15:20:15.610Z,98.22
2022-09-03T15:22:53.559Z,99.39
2022-09-03T15:26:08.598Z,96.14
2022-09-03T15:29:09.321Z,100.00
2022-09-03T15:32:24.561Z,100.00
2022-09-03T15:35:05.876Z,100.00
2022-09-03T15:37:51.149Z,100.00
2022-09-03T15:40:35.947Z,100.00
2022-09-03T15:43:37.875Z,100.00
2022-09-03T15:46:15.505Z,100.00
2022-09-03T15:49:07.336Z,100.00
2022-09-03T15:51:48.067Z,100.00
2022-09-03T15:54:33.971Z,100.00
2022-09-03T15:57:27.663Z,100.00
2022-09-03T16:00:21.334Z,100.00
2022-09-03T16:03:11.150Z,100.00
2022-09-03T16:05:43.526Z,100.00
2022-09-03T16:08:39.577Z,100.00
2022-09-03T16:11:28.903Z,100.00
2022-09-03T16:14:24.663Z,100.00
2022-09-03T16:16:59.872Z,100.00
2022-09-03T16:19:54.743Z,100.00
2022-09-03T16:22:35.176Z,100.00
2022-09-03T16:25:19.839Z,100.00
2022-09-03T16:28:26.564Z,100.00
2022-09-03T16:31:23.707Z,100.00
2022-09-03T16:34:32.713Z,100.00
2022-09-03T16:37:25.058Z,100.00
2022-09-03T16:40:26.682Z,100.00
2022-09-03T16:43:39.432Z,100.00
2022-09-03T16:46:50.858Z,100.00
2022-09-03T16:50:02.623Z,100.00
2022-09-03T16:53:10.131Z,100.00
2022-09-03T16:56:24.455Z,100.00
2022-09-03T16:59:21.902Z,100.00
2022-09-03T17:06:08.134Z,100.00
2022-09-03T17:09:25.508Z,100.00
2022-09-03T17:12:15.154Z,100.00
2022-09-03T17:15:25.883Z,100.00
2022-09-03T17:18:20.857Z,100.00
2022-09-03T17:21:12.862Z,100.00
2022-09-03T17:24:05.623Z,100.00
2022-09-03T17:26:47.844Z,100.00
2022-09-03T17:29:57.064Z,100.00
2022-09-03T17:33:07.522Z,100.00
2022-09-03T17:36:01.739Z,100.00
2022-09-03T17:39:05.711Z,100.00
2022-09-03T17:42:00.356Z,100.00
2022-09-03T17:44:38.518Z,100.00
2022-09-03T17:47:50.475Z,100.00
2022-09-03T17:50:29.087Z,100.00
2022-09-03T17:53:08.192Z,100.00
2022-09-03T17:55:57.190Z,100.00
2022-09-03T17:58:47.245Z,100.00
2022-09-03T18:01:26.361Z,100.00
2022-09-03T18:04:16.068Z,100.00
2022-09-03T18:07:31.792Z,100.00
2022-09-03T18:10:20.464Z,100.00
2022-09-03T18:13:23.648Z,100.00
2022-09-03T18:16:33.541Z,100.00
2022-09-03T18:19:39.386Z,100.00
2022-09-03T18:22:32.441Z,100.00
2022-09-03T18:25:25.705Z,100.00
2022-09-03T18:28:21.506Z,100.00
2022-09-03T18:31:12.972Z,100.00
2022-09-03T18:33:59.542Z,100.00
2022-09-03T18:36:47.897Z,100.00
2022-09-03T18:39:54.327Z,100.00
2022-09-03T18:43:15.127Z,100.00
2022-09-03T18:49:56.194Z,100.00
2022-09-03T18:53:33.759Z,100.00
2022-09-03T18:56:44.708Z,100.00
2022-09-03T18:59:52.998Z,100.00
2022-09-03T19:03:22.321Z,100.00
2022-09-03T19:06:52.022Z,100.00
2022-09-03T19:09:58.945Z,100.00
2022-09-03T19:13:03.528Z,100.00
2022-09-03T19:16:03.196Z,100.00
2022-09-03T19:19:28.022Z,100.00
2022-09-03T19:22:24.945Z,100.00
2022-09-03T19:25:19.689Z,100.00
2022-09-03T19:28:26.918Z,100.00
2022-09-03T19:31:44.273Z,100.00
2022-09-03T19:34:59.947Z,100.00
2022-09-03T19:38:18.704Z,100.00
2022-09-03T19:41:25.705Z,100.00
2022-09-03T19:44:48.474Z,100.00
2022-09-03T19:47:47.967Z,100.00
2022-09-03T19:50:49.388Z,100.00
2022-09-03T19:53:40.567Z,100.00
2022-09-03T19:59:45.720Z,100.00
2022-09-03T20:02:33.625Z,100.00
2022-09-03T20:05:25.787Z,100.00
2022-09-03T20:08:16.916Z,100.00
2022-09-03T20:10:50.755Z,100.00
2022-09-03T20:13:52.530Z,100.00
2022-09-03T20:17:12.015Z,100.00
2022-09-03T20:20:08.835Z,100.00
2022-09-03T20:23:03.826Z,100.00
2022-09-03T20:26:17.039Z,100.00
2022-09-03T20:29:23.646Z,100.00
2022-09-03T20:32:24.774Z,100.00
2022-09-03T20:35:28.252Z,100.00
2022-09-03T20:38:56.283Z,100.00
2022-09-03T20:41:54.873Z,100.00
2022-09-03T20:48:09.868Z,100.00
2022-09-03T20:51:13.599Z,100.00
2022-09-03T20:54:03.747Z,100.00
2022-09-03T20:57:16.773Z,100.00
2022-09-03T21:00:20.975Z,100.00
2022-09-03T21:03:16.422Z,100.00
2022-09-03T21:06:09.053Z,100.00
2022-09-03T21:09:10.181Z,100.00
2022-09-03T21:12:10.476Z,100.00
2022-09-03T21:15:11.416Z,100.00
2022-09-03T21:18:04.549Z,100.00
2022-09-03T21:20:54.457Z,100.00
2022-09-03T21:23:56.556Z,100.00
2022-09-03T21:26:34.479Z,100.00
2022-09-03T21:29:22.193Z,100.00
2022-09-03T21:32:31.121Z,100.00
2022-09-03T21:35:16.710Z,100.00
2022-09-03T21:37:59.991Z,100.00
2022-09-03T21:40:37.732Z,100.00
2022-09-03T21:43:35.646Z,100.00
2022-09-03T21:46:27.394Z,100.00
2022-09-03T21:49:13.954Z,100.00
2022-09-03T21:52:10.030Z,100.00
2022-09-03T21:54:48.556Z,100.00
2022-09-03T21:57:51.558Z,100.00
2022-09-03T22:00:39.034Z,100.00
2022-09-03T22:03:13.204Z,100.00
2022-09-03T22:06:34.938Z,100.00
2022-09-03T22:09:22.205Z,100.00
2022-09-03T22:12:21.511Z,100.00
2022-09-03T22:15:07.037Z,100.00
2022-09-03T22:18:05.892Z,100.00
2022-09-03T22:20:41.688Z,100.00
2022-09-03T22:23:30.375Z,100.00
2022-09-03T22:26:22.780Z,100.00
2022-09-03T22:29:19.425Z,100.00
2022-09-03T22:32:13.663Z,100.00
2022-09-03T22:34:57.165Z,100.00
2022-09-03T22:37:48.446Z,100.00
2022-09-03T22:40:54.174Z,100.00
2022-09-03T22:43:39.089Z,100.00
2022-09-03T22:47:06.720Z,100.00
2022-09-03T22:50:16.165Z,100.00
2022-09-03T22:53:12.882Z,100.00
2022-09-03T22:56:05.421Z,100.00
2022-09-03T22:58:51.054Z,100.00
2022-09-03T23:01:46.485Z,100.00
2022-09-03T23:04:33.999Z,100.00
2022-09-03T23:07:28.602Z,100.00
2022-09-03T23:10:02.714Z,100.00
2022-09-03T23:12:53.088Z,100.00
2022-09-03T23:15:33.043Z,100.00
2022-09-03T23:18:27.771Z,100.00
2022-09-03T23:21:25.653Z,100.00
2022-09-03T23:24:16.613Z,100.00
2022-09-03T23:27:03.777Z,100.00
2022-09-03T23:29:57.124Z,100.00
2022-09-03T23:32:33.078Z,100.00
2022-09-03T23:35:22.348Z,100.00
2022-09-03T23:38:36.528Z,100.00
2022-09-03T23:41:24.026Z,100.00
2022-09-03T23:44:38.749Z,100.00
2022-09-03T23:47:41.580Z,100.00
2022-09-03T23:50:43.285Z,100.00
2022-09-03T23:53:56.576Z,100.00
2022-09-03T23:57:00.927Z,100.00
2022-09-03T23:59:44.307Z,100.00
